sensor_id;sensor_type;location;lat;lon;timestamp;pressure;altitude;pressure_sealevel;temperature;humidity
22743;BME280;11538;48.884;8.696;2023-07-29T00:01:40;98282.53;;;17.66;100.00
22743;BME280;11538;48.884;8.696;2023-07-29T00:04:08;98279.78;;;17.66;100.00
22743;BME280;11538;48.884;8.696;2023-07-29T00:06:35;98274.56;;;17.61;100.00
22743;BME280;11538;48.884;8.696;2023-07-29T00:09:03;98274.19;;;17.63;100.00
22743;BME280;11538;48.884;8.696;2023-07-29T00:11:30;98276.59;;;17.64;100.00
22743;BME280;11538;48.884;8.696;2023-07-29T00:13:57;98276.22;;;17.66;100.00
22743;BME280;11538;48.884;8.696;2023-07-29T00:16:24;98281.22;;;17.60;100.00
22743;BME280;11538;48.884;8.696;2023-07-29T00:18:51;98272.56;;;17.58;100.00
22743;BME280;11538;48.884;8.696;2023-07-29T00:21:18;98277.59;;;17.56;100.00
22743;BME280;11538;48.884;8.696;2023-07-29T00:23:45;98272.41;;;17.51;100.00
22743;BME280;11538;48.884;8.696;2023-07-29T00:26:12;98271.59;;;17.50;100.00
22743;BME280;11538;48.884;8.696;2023-07-29T00:28:39;98278.31;;;17.53;100.00
22743;BME280;11538;48.884;8.696;2023-07-29T00:31:05;98277.94;;;17.54;100.00
22743;BME280;11538;48.884;8.696;2023-07-29T00:33:32;98271.41;;;17.59;100.00
22743;BME280;11538;48.884;8.696;2023-07-29T00:35:59;98263.16;;;17.59;100.00
22743;BME280;11538;48.884;8.696;2023-07-29T00:38:28;98269.81;;;17.58;100.00
22743;BME280;11538;48.884;8.696;2023-07-29T00:41:00;98266.25;;;17.58;100.00
22743;BME280;11538;48.884;8.696;2023-07-29T00:43:29;98265.91;;;17.59;100.00
22743;BME280;11538;48.884;8.696;2023-07-29T00:45:56;98262.78;;;17.61;100.00
22743;BME280;11538;48.884;8.696;2023-07-29T00:48:25;98265.19;;;17.62;100.00
22743;BME280;11538;48.884;8.696;2023-07-29T00:50:52;98263.59;;;17.61;100.00
22743;BME280;11538;48.884;8.696;2023-07-29T00:53:19;98255.81;;;17.63;100.00
22743;BME280;11538;48.884;8.696;2023-07-29T00:55:46;98252.25;;;17.63;100.00
22743;BME280;11538;48.884;8.696;2023-07-29T00:58:13;98245.56;;;17.60;100.00
22743;BME280;11538;48.884;8.696;2023-07-29T01:00:40;98241.66;;;17.61;100.00
22743;BME280;11538;48.884;8.696;2023-07-29T01:03:08;98246.00;;;17.62;100.00
22743;BME280;11538;48.884;8.696;2023-07-29T01:05:49;98252.25;;;17.63;100.00
22743;BME280;11538;48.884;8.696;2023-07-29T01:08:27;98249.19;;;17.64;100.00
22743;BME280;11538;48.884;8.696;2023-07-29T01:11:11;98251.19;;;17.67;100.00
22743;BME280;11538;48.884;8.696;2023-07-29T01:13:49;98246.56;;;17.72;100.00
22743;BME280;11538;48.884;8.696;2023-07-29T01:16:21;98240.22;;;17.67;100.00
22743;BME280;11538;48.884;8.696;2023-07-29T01:18:52;98241.66;;;17.61;100.00
22743;BME280;11538;48.884;8.696;2023-07-29T01:21:21;98238.50;;;17.59;100.00
22743;BME280;11538;48.884;8.696;2023-07-29T01:23:52;98226.72;;;17.59;100.00
22743;BME280;11538;48.884;8.696;2023-07-29T01:26:20;98219.31;;;17.59;100.00
22743;BME280;11538;48.884;8.696;2023-07-29T01:28:46;98221.97;;;17.56;100.00
22743;BME280;11538;48.884;8.696;2023-07-29T01:31:25;98216.84;;;17.54;100.00
22743;BME280;11538;48.884;8.696;2023-07-29T01:34:14;98214.88;;;17.54;100.00
22743;BME280;11538;48.884;8.696;2023-07-29T01:36:46;98218.88;;;17.57;100.00
22743;BME280;11538;48.884;8.696;2023-07-29T01:39:16;98219.59;;;17.54;100.00
22743;BME280;11538;48.884;8.696;2023-07-29T01:41:43;98212.53;;;17.53;100.00
22743;BME280;11538;48.884;8.696;2023-07-29T01:44:12;98218.00;;;17.53;100.00
22743;BME280;11538;48.884;8.696;2023-07-29T01:46:44;98218.78;;;17.53;100.00
22743;BME280;11538;48.884;8.696;2023-07-29T01:49:10;98214.88;;;17.54;100.00
22743;BME280;11538;48.884;8.696;2023-07-29T01:51:37;98212.09;;;17.51;100.00
22743;BME280;11538;48.884;8.696;2023-07-29T01:54:04;98213.25;;;17.50;100.00
22743;BME280;11538;48.884;8.696;2023-07-29T01:56:31;98212.09;;;17.51;100.00
22743;BME280;11538;48.884;8.696;2023-07-29T01:58:58;98209.34;;;17.51;100.00
22743;BME280;11538;48.884;8.696;2023-07-29T02:01:25;98209.69;;;17.49;100.00
22743;BME280;11538;48.884;8.696;2023-07-29T02:03:52;98206.88;;;17.46;100.00
22743;BME280;11538;48.884;8.696;2023-07-29T02:06:22;98206.03;;;17.42;100.00
22743;BME280;11538;48.884;8.696;2023-07-29T02:08:49;98206.81;;;17.42;100.00
22743;BME280;11538;48.884;8.696;2023-07-29T02:11:16;98213.09;;;17.43;100.00
22743;BME280;11538;48.884;8.696;2023-07-29T02:13:45;98211.94;;;17.44;100.00
22743;BME280;11538;48.884;8.696;2023-07-29T02:16:12;98214.16;;;17.38;100.00
22743;BME280;11538;48.884;8.696;2023-07-29T02:18:39;98212.13;;;17.35;100.00
22743;BME280;11538;48.884;8.696;2023-07-29T02:21:06;98207.47;;;17.35;100.00
22743;BME280;11538;48.884;8.696;2023-07-29T02:23:32;98207.47;;;17.35;100.00
22743;BME280;11538;48.884;8.696;2023-07-29T02:25:59;98210.53;;;17.34;100.00
22743;BME280;11538;48.884;8.696;2023-07-29T02:28:26;98207.38;;;17.32;100.00
22743;BME280;11538;48.884;8.696;2023-07-29T02:31:15;98211.41;;;17.38;100.00
22743;BME280;11538;48.884;8.696;2023-07-29T02:33:44;98209.03;;;17.36;100.00
22743;BME280;11538;48.884;8.696;2023-07-29T02:36:12;98209.03;;;17.36;100.00
22743;BME280;11538;48.884;8.696;2023-07-29T02:38:40;98201.25;;;17.38;100.00
22743;BME280;11538;48.884;8.696;2023-07-29T02:41:08;98198.50;;;17.38;100.00
22743;BME280;11538;48.884;8.696;2023-07-29T02:43:36;98192.75;;;17.44;100.00
22743;BME280;11538;48.884;8.696;2023-07-29T02:46:03;98191.22;;;17.46;100.00
22743;BME280;11538;48.884;8.696;2023-07-29T02:48:30;98188.13;;;17.48;100.00
22743;BME280;11538;48.884;8.696;2023-07-29T02:50:57;98185.00;;;17.49;100.00
22743;BME280;11538;48.884;8.696;2023-07-29T02:53:25;98181.50;;;17.49;100.00
22743;BME280;11538;48.884;8.696;2023-07-29T02:55:52;98184.59;;;17.47;100.00
22743;BME280;11538;48.884;8.696;2023-07-29T02:58:19;98179.81;;;17.44;100.00
22743;BME280;11538;48.884;8.696;2023-07-29T03:00:46;98182.22;;;17.46;100.00
22743;BME280;11538;48.884;8.696;2023-07-29T03:03:15;98183.81;;;17.47;100.00
22743;BME280;11538;48.884;8.696;2023-07-29T03:05:41;98179.53;;;17.49;100.00
22743;BME280;11538;48.884;8.696;2023-07-29T03:08:08;98185.09;;;17.53;100.00
22743;BME280;11538;48.884;8.696;2023-07-29T03:10:35;98179.63;;;17.53;100.00
22743;BME280;11538;48.884;8.696;2023-07-29T03:13:02;98175.28;;;17.52;100.00
22743;BME280;11538;48.884;8.696;2023-07-29T03:15:30;98173.31;;;17.52;100.00
22743;BME280;11538;48.884;8.696;2023-07-29T03:17:56;98165.91;;;17.53;100.00
22743;BME280;11538;48.884;8.696;2023-07-29T03:20:23;98173.31;;;17.52;100.00
22743;BME280;11538;48.884;8.696;2023-07-29T03:22:50;98173.28;;;17.49;100.00
22743;BME280;11538;48.884;8.696;2023-07-29T03:25:17;98172.84;;;17.47;100.00
22743;BME280;11538;48.884;8.696;2023-07-29T03:27:43;98162.31;;;17.49;100.00
22743;BME280;11538;48.884;8.696;2023-07-29T03:30:11;98163.09;;;17.49;100.00
22743;BME280;11538;48.884;8.696;2023-07-29T03:32:43;98152.91;;;17.50;100.00
22743;BME280;11538;48.884;8.696;2023-07-29T03:35:11;98163.16;;;17.53;100.00
22743;BME280;11538;48.884;8.696;2023-07-29T03:37:38;98171.00;;;17.54;100.00
22743;BME280;11538;48.884;8.696;2023-07-29T03:40:05;98171.09;;;17.58;100.00
22743;BME280;11538;48.884;8.696;2023-07-29T03:42:33;98173.56;;;17.63;100.00
22743;BME280;11538;48.884;8.696;2023-07-29T03:44:59;98175.13;;;17.64;100.00
22743;BME280;11538;48.884;8.696;2023-07-29T03:47:27;98170.28;;;17.58;100.00
22743;BME280;11538;48.884;8.696;2023-07-29T03:49:54;98155.38;;;17.55;100.00
22743;BME280;11538;48.884;8.696;2023-07-29T03:52:21;98151.03;;;17.54;100.00
22743;BME280;11538;48.884;8.696;2023-07-29T03:54:47;98157.69;;;17.53;100.00
22743;BME280;11538;48.884;8.696;2023-07-29T03:57:14;98151.47;;;17.56;100.00
22743;BME280;11538;48.884;8.696;2023-07-29T03:59:41;98146.47;;;17.62;100.00
22743;BME280;11538;48.884;8.696;2023-07-29T04:02:08;98133.63;;;17.66;100.00
22743;BME280;11538;48.884;8.696;2023-07-29T04:04:36;98144.25;;;17.67;100.00
22743;BME280;11538;48.884;8.696;2023-07-29T04:07:02;98148.56;;;17.68;100.00
22743;BME280;11538;48.884;8.696;2023-07-29T04:09:29;98161.19;;;17.73;100.00
22743;BME280;11538;48.884;8.696;2023-07-29T04:11:56;98171.50;;;17.80;100.00
22743;BME280;11538;48.884;8.696;2023-07-29T04:14:23;98180.94;;;17.82;100.00
22743;BME280;11538;48.884;8.696;2023-07-29T04:16:50;98190.41;;;17.85;100.00
22743;BME280;11538;48.884;8.696;2023-07-29T04:19:16;98192.34;;;17.84;100.00
22743;BME280;11538;48.884;8.696;2023-07-29T04:21:43;98199.72;;;17.80;100.00
22743;BME280;11538;48.884;8.696;2023-07-29T04:24:10;98181.19;;;17.74;100.00
22743;BME280;11538;48.884;8.696;2023-07-29T04:26:37;98174.53;;;17.75;100.00
22743;BME280;11538;48.884;8.696;2023-07-29T04:29:05;98168.34;;;17.78;100.00
22743;BME280;11538;48.884;8.696;2023-07-29T04:31:32;98160.53;;;17.80;100.00
22743;BME280;11538;48.884;8.696;2023-07-29T04:33:59;98149.19;;;17.81;100.00
22743;BME280;11538;48.884;8.696;2023-07-29T04:36:26;98157.06;;;17.83;100.00
22743;BME280;11538;48.884;8.696;2023-07-29T04:38:52;98153.94;;;17.84;100.00
22743;BME280;11538;48.884;8.696;2023-07-29T04:41:19;98157.19;;;17.90;100.00
22743;BME280;11538;48.884;8.696;2023-07-29T04:43:46;98155.69;;;17.93;100.00
22743;BME280;11538;48.884;8.696;2023-07-29T04:46:13;98148.66;;;17.95;100.00
22743;BME280;11538;48.884;8.696;2023-07-29T04:48:40;98153.78;;;17.97;100.00
22743;BME280;11538;48.884;8.696;2023-07-29T04:51:07;98149.50;;;18.00;100.00
22743;BME280;11538;48.884;8.696;2023-07-29T04:53:33;98153.16;;;18.04;100.00
22743;BME280;11538;48.884;8.696;2023-07-29T04:56:03;98156.75;;;18.08;100.00
22743;BME280;11538;48.884;8.696;2023-07-29T04:58:29;98145.03;;;18.11;100.00
22743;BME280;11538;48.884;8.696;2023-07-29T05:00:56;98142.72;;;18.13;100.00
22743;BME280;11538;48.884;8.696;2023-07-29T05:03:23;98147.06;;;18.14;100.00
22743;BME280;11538;48.884;8.696;2023-07-29T05:05:50;98147.47;;;18.16;100.00
22743;BME280;11538;48.884;8.696;2023-07-29T05:08:18;98162.06;;;18.20;100.00
22743;BME280;11538;48.884;8.696;2023-07-29T05:10:48;98157.00;;;18.22;100.00
22743;BME280;11538;48.884;8.696;2023-07-29T05:13:16;98141.75;;;18.25;100.00
22743;BME280;11538;48.884;8.696;2023-07-29T05:15:43;98141.78;;;18.29;100.00
22743;BME280;11538;48.884;8.696;2023-07-29T05:18:10;98141.03;;;18.28;100.00
22743;BME280;11538;48.884;8.696;2023-07-29T05:20:37;98144.19;;;18.30;100.00
22743;BME280;11538;48.884;8.696;2023-07-29T05:23:03;98145.81;;;18.35;100.00
22743;BME280;11538;48.884;8.696;2023-07-29T05:25:30;98143.91;;;18.39;100.00
22743;BME280;11538;48.884;8.696;2023-07-29T05:27:57;98158.91;;;18.45;100.00
22743;BME280;11538;48.884;8.696;2023-07-29T05:30:24;98165.69;;;18.51;100.00
22743;BME280;11538;48.884;8.696;2023-07-29T05:32:51;98165.75;;;18.55;100.00
22743;BME280;11538;48.884;8.696;2023-07-29T05:35:17;98171.31;;;18.59;100.00
22743;BME280;11538;48.884;8.696;2023-07-29T05:37:44;98178.75;;;18.58;100.00
22743;BME280;11538;48.884;8.696;2023-07-29T05:40:11;98184.16;;;18.54;100.00
22743;BME280;11538;48.884;8.696;2023-07-29T05:42:38;98184.56;;;18.53;100.00
22743;BME280;11538;48.884;8.696;2023-07-29T05:45:05;98182.97;;;18.52;100.00
22743;BME280;11538;48.884;8.696;2023-07-29T05:47:32;98179.50;;;18.55;100.00
22743;BME280;11538;48.884;8.696;2023-07-29T05:49:59;98161.50;;;18.58;100.00
22743;BME280;11538;48.884;8.696;2023-07-29T05:52:34;98161.13;;;18.59;100.00
22743;BME280;11538;48.884;8.696;2023-07-29T05:55:01;98160.03;;;18.64;100.00
22743;BME280;11538;48.884;8.696;2023-07-29T05:57:28;98165.56;;;18.67;100.00
22743;BME280;11538;48.884;8.696;2023-07-29T05:59:55;98170.31;;;18.70;100.00
22743;BME280;11538;48.884;8.696;2023-07-29T06:02:21;98173.13;;;18.74;100.00
22743;BME280;11538;48.884;8.696;2023-07-29T06:04:48;98176.28;;;18.76;100.00
22743;BME280;11538;48.884;8.696;2023-07-29T06:07:15;98178.72;;;18.81;100.00
22743;BME280;11538;48.884;8.696;2023-07-29T06:09:42;98176.81;;;18.85;100.00
22743;BME280;11538;48.884;8.696;2023-07-29T06:12:09;98177.97;;;18.84;100.00
22743;BME280;11538;48.884;8.696;2023-07-29T06:14:36;98182.25;;;18.82;100.00
22743;BME280;11538;48.884;8.696;2023-07-29T06:17:03;98182.63;;;18.80;100.00
22743;BME280;11538;48.884;8.696;2023-07-29T06:19:30;98192.03;;;18.79;100.00
22743;BME280;11538;48.884;8.696;2023-07-29T06:21:57;98195.94;;;18.78;100.00
22743;BME280;11538;48.884;8.696;2023-07-29T06:24:24;98207.28;;;18.77;100.00
22743;BME280;11538;48.884;8.696;2023-07-29T06:26:50;98213.16;;;18.75;100.00
22743;BME280;11538;48.884;8.696;2023-07-29T06:29:17;98210.00;;;18.73;100.00
22743;BME280;11538;48.884;8.696;2023-07-29T06:31:44;98209.56;;;18.71;100.00
22743;BME280;11538;48.884;8.696;2023-07-29T06:34:11;98212.31;;;18.71;100.00
22743;BME280;11538;48.884;8.696;2023-07-29T06:36:38;98207.59;;;18.71;100.00
22743;BME280;11538;48.884;8.696;2023-07-29T06:39:07;98215.41;;;18.69;100.00
22743;BME280;11538;48.884;8.696;2023-07-29T06:41:34;98220.88;;;18.66;100.00
22743;BME280;11538;48.884;8.696;2023-07-29T06:44:01;98201.25;;;18.67;100.00
22743;BME280;11538;48.884;8.696;2023-07-29T06:46:28;98209.16;;;18.69;100.00
22743;BME280;11538;48.884;8.696;2023-07-29T06:48:55;98217.00;;;18.70;100.00
22743;BME280;11538;48.884;8.696;2023-07-29T06:51:22;98220.56;;;18.71;100.00
22743;BME280;11538;48.884;8.696;2023-07-29T06:53:48;98224.06;;;18.71;100.00
22743;BME280;11538;48.884;8.696;2023-07-29T06:56:16;98224.88;;;18.72;100.00
22743;BME280;11538;48.884;8.696;2023-07-29T06:58:42;98230.44;;;18.76;100.00
22743;BME280;11538;48.884;8.696;2023-07-29T07:01:09;98234.81;;;18.80;100.00
22743;BME280;11538;48.884;8.696;2023-07-29T07:03:36;98234.13;;;18.87;100.00
22743;BME280;11538;48.884;8.696;2023-07-29T07:06:03;98226.41;;;18.96;100.00
22743;BME280;11538;48.884;8.696;2023-07-29T07:08:31;98233.59;;;19.01;100.00
22743;BME280;11538;48.884;8.696;2023-07-29T07:10:58;98239.13;;;19.05;100.00
22743;BME280;11538;48.884;8.696;2023-07-29T07:13:25;98234.53;;;19.12;100.00
22743;BME280;11538;48.884;8.696;2023-07-29T07:15:54;98235.00;;;19.18;100.00
22743;BME280;11538;48.884;8.696;2023-07-29T07:18:21;98239.41;;;19.23;100.00
22743;BME280;11538;48.884;8.696;2023-07-29T07:20:51;98236.31;;;19.28;100.00
22743;BME280;11538;48.884;8.696;2023-07-29T07:23:18;98233.66;;;19.32;100.00
22743;BME280;11538;48.884;8.696;2023-07-29T07:25:45;98230.16;;;19.35;100.00
22743;BME280;11538;48.884;8.696;2023-07-29T07:28:12;98241.59;;;19.40;100.00
22743;BME280;11538;48.884;8.696;2023-07-29T07:30:40;98239.69;;;19.44;100.00
22743;BME280;11538;48.884;8.696;2023-07-29T07:33:08;98226.78;;;19.49;100.00
22743;BME280;11538;48.884;8.696;2023-07-29T07:35:34;98222.19;;;19.60;100.00
22743;BME280;11538;48.884;8.696;2023-07-29T07:38:01;98229.03;;;19.73;100.00
22743;BME280;11538;48.884;8.696;2023-07-29T07:40:31;98232.75;;;19.88;100.00
22743;BME280;11538;48.884;8.696;2023-07-29T07:42:58;98223.53;;;20.04;100.00
22743;BME280;11538;48.884;8.696;2023-07-29T07:45:24;98214.22;;;20.16;100.00
22743;BME280;11538;48.884;8.696;2023-07-29T07:47:52;98210.44;;;20.35;100.00
22743;BME280;11538;48.884;8.696;2023-07-29T07:50:21;98209.88;;;20.60;100.00
22743;BME280;11538;48.884;8.696;2023-07-29T07:52:48;98219.44;;;20.77;100.00
22743;BME280;11538;48.884;8.696;2023-07-29T07:55:15;98219.97;;;20.90;100.00
22743;BME280;11538;48.884;8.696;2023-07-29T07:57:42;98210.50;;;20.87;100.00
22743;BME280;11538;48.884;8.696;2023-07-29T08:00:09;98216.78;;;20.84;100.00
22743;BME280;11538;48.884;8.696;2023-07-29T08:02:36;98217.47;;;20.74;100.00
22743;BME280;11538;48.884;8.696;2023-07-29T08:05:04;98235.56;;;20.71;100.00
22743;BME280;11538;48.884;8.696;2023-07-29T08:07:31;98242.25;;;20.70;100.00
22743;BME280;11538;48.884;8.696;2023-07-29T08:09:57;98251.69;;;20.69;100.00
22743;BME280;11538;48.884;8.696;2023-07-29T08:12:24;98253.63;;;20.69;100.00
22743;BME280;11538;48.884;8.696;2023-07-29T08:14:51;98255.63;;;20.68;100.00
22743;BME280;11538;48.884;8.696;2023-07-29T08:17:18;98253.28;;;20.70;100.00
22743;BME280;11538;48.884;8.696;2023-07-29T08:19:45;98258.78;;;20.74;100.00
22743;BME280;11538;48.884;8.696;2023-07-29T08:22:11;98254.50;;;20.77;100.00
22743;BME280;11538;48.884;8.696;2023-07-29T08:24:38;98249.84;;;20.81;100.00
22743;BME280;11538;48.884;8.696;2023-07-29T08:27:05;98262.09;;;20.87;100.00
22743;BME280;11538;48.884;8.696;2023-07-29T08:29:32;98255.03;;;20.93;100.00
22743;BME280;11538;48.884;8.696;2023-07-29T08:31:59;98259.41;;;20.98;100.00
22743;BME280;11538;48.884;8.696;2023-07-29T08:34:26;98262.16;;;20.98;100.00
22743;BME280;11538;48.884;8.696;2023-07-29T08:36:53;98255.44;;;20.95;100.00
22743;BME280;11538;48.884;8.696;2023-07-29T08:39:20;98257.81;;;20.93;100.00
22743;BME280;11538;48.884;8.696;2023-07-29T08:42:07;98258.97;;;20.96;100.00
22743;BME280;11538;48.884;8.696;2023-07-29T08:44:41;98251.53;;;21.00;100.00
22743;BME280;11538;48.884;8.696;2023-07-29T08:47:08;98259.09;;;21.10;100.00
22743;BME280;11538;48.884;8.696;2023-07-29T08:49:36;98250.91;;;21.21;100.00
22743;BME280;11538;48.884;8.696;2023-07-29T08:52:04;98255.31;;;21.37;100.00
22743;BME280;11538;48.884;8.696;2023-07-29T08:54:31;98257.78;;;21.56;100.00
22743;BME280;11538;48.884;8.696;2023-07-29T08:56:59;98246.06;;;21.70;100.00
22743;BME280;11538;48.884;8.696;2023-07-29T08:59:28;98251.19;;;21.75;100.00
22743;BME280;11538;48.884;8.696;2023-07-29T09:01:56;98256.28;;;21.70;100.00
22743;BME280;11538;48.884;8.696;2023-07-29T09:04:24;98255.50;;;21.73;100.00
22743;BME280;11538;48.884;8.696;2023-07-29T09:06:53;98245.31;;;21.81;100.00
22743;BME280;11538;48.884;8.696;2023-07-29T09:09:20;98248.53;;;21.94;100.00
22743;BME280;11538;48.884;8.696;2023-07-29T09:11:48;98245.38;;;22.02;100.00
22743;BME280;11538;48.884;8.696;2023-07-29T09:14:15;98245.34;;;21.88;100.00
22743;BME280;11538;48.884;8.696;2023-07-29T09:16:42;98246.84;;;21.67;100.00
22743;BME280;11538;48.884;8.696;2023-07-29T09:19:09;98252.22;;;21.49;100.00
22743;BME280;11538;48.884;8.696;2023-07-29T09:21:39;98259.25;;;21.32;100.00
22743;BME280;11538;48.884;8.696;2023-07-29T09:24:07;98278.03;;;21.15;100.00
22743;BME280;11538;48.884;8.696;2023-07-29T09:26:34;98299.97;;;21.01;100.00
22743;BME280;11538;48.884;8.696;2023-07-29T09:29:02;98320.63;;;20.77;100.00
22743;BME280;11538;48.884;8.696;2023-07-29T09:31:30;98311.97;;;20.37;100.00
22743;BME280;11538;48.884;8.696;2023-07-29T09:34:02;98317.09;;;20.04;100.00
22743;BME280;11538;48.884;8.696;2023-07-29T09:36:31;98313.59;;;19.77;100.00
22743;BME280;11538;48.884;8.696;2023-07-29T09:38:59;98300.72;;;19.54;100.00
22743;BME280;11538;48.884;8.696;2023-07-29T09:41:27;98307.69;;;19.48;100.00
22743;BME280;11538;48.884;8.696;2023-07-29T09:44:02;98307.66;;;19.44;100.00
22743;BME280;11538;48.884;8.696;2023-07-29T09:46:34;98295.84;;;19.43;100.00
22743;BME280;11538;48.884;8.696;2023-07-29T09:49:04;98288.03;;;19.46;100.00
22743;BME280;11538;48.884;8.696;2023-07-29T09:51:32;98291.19;;;19.48;100.00
22743;BME280;11538;48.884;8.696;2023-07-29T09:54:03;98297.59;;;19.55;100.00
22743;BME280;11538;48.884;8.696;2023-07-29T09:56:30;98301.22;;;19.63;100.00
22743;BME280;11538;48.884;8.696;2023-07-29T09:58:57;98296.25;;;19.72;100.00
22743;BME280;11538;48.884;8.696;2023-07-29T10:01:24;98300.22;;;19.75;100.00
22743;BME280;11538;48.884;8.696;2023-07-29T10:03:52;98299.91;;;19.84;100.00
22743;BME280;11538;48.884;8.696;2023-07-29T10:06:19;98303.41;;;20.08;100.00
22743;BME280;11538;48.884;8.696;2023-07-29T10:08:47;98302.06;;;20.28;100.00
22743;BME280;11538;48.884;8.696;2023-07-29T10:11:14;98299.53;;;20.50;100.00
22743;BME280;11538;48.884;8.696;2023-07-29T10:13:42;98306.00;;;20.69;100.00
22743;BME280;11538;48.884;8.696;2023-07-29T10:16:23;98310.31;;;20.66;100.00
22743;BME280;11538;48.884;8.696;2023-07-29T10:18:52;98314.53;;;20.56;100.00
22743;BME280;11538;48.884;8.696;2023-07-29T10:21:21;98315.25;;;20.50;100.00
22743;BME280;11538;48.884;8.696;2023-07-29T10:23:52;98312.25;;;20.62;100.00
22743;BME280;11538;48.884;8.696;2023-07-29T10:26:20;98322.56;;;20.72;100.00
22743;BME280;11538;48.884;8.696;2023-07-29T10:28:47;98318.66;;;20.77;100.00
22743;BME280;11538;48.884;8.696;2023-07-29T10:31:17;98320.59;;;20.73;100.00
22743;BME280;11538;48.884;8.696;2023-07-29T10:33:44;98320.28;;;20.78;100.00
22743;BME280;11538;48.884;8.696;2023-07-29T10:36:12;98306.00;;;21.17;100.00
22743;BME280;11538;48.884;8.696;2023-07-29T10:38:40;98300.91;;;21.83;100.00
22743;BME280;11538;48.884;8.696;2023-07-29T10:41:07;98301.09;;;22.37;100.00
22743;BME280;11538;48.884;8.696;2023-07-29T10:43:37;98306.72;;;22.81;100.00
22743;BME280;11538;48.884;8.696;2023-07-29T10:46:22;98309.09;;;23.07;100.00
22743;BME280;11538;48.884;8.696;2023-07-29T10:51:36;98302.25;;;23.81;100.00
22743;BME280;11538;48.884;8.696;2023-07-29T10:54:14;98299.44;;;24.03;100.00
22743;BME280;11538;48.884;8.696;2023-07-29T10:56:43;98307.63;;;24.28;100.00
22743;BME280;11538;48.884;8.696;2023-07-29T11:01:51;98305.47;;;24.54;99.14
22743;BME280;11538;48.884;8.696;2023-07-29T11:07:19;98296.03;;;24.48;94.67
22743;BME280;11538;48.884;8.696;2023-07-29T11:09:57;98294.03;;;24.48;94.57
22743;BME280;11538;48.884;8.696;2023-07-29T11:17:41;98276.78;;;24.82;92.39
22743;BME280;11538;48.884;8.696;2023-07-29T11:20:09;98273.97;;;24.90;94.61
22743;BME280;11538;48.884;8.696;2023-07-29T11:22:37;98278.63;;;25.00;92.10
22743;BME280;11538;48.884;8.696;2023-07-29T11:25:06;98284.44;;;25.13;87.60
22743;BME280;11538;48.884;8.696;2023-07-29T11:27:33;98285.06;;;25.32;86.59
22743;BME280;11538;48.884;8.696;2023-07-29T11:30:03;98281.56;;;25.66;84.48
22743;BME280;11538;48.884;8.696;2023-07-29T11:32:32;98277.50;;;26.05;83.25
22743;BME280;11538;48.884;8.696;2023-07-29T11:35:29;98261.84;;;26.74;80.97
22743;BME280;11538;48.884;8.696;2023-07-29T11:37:56;98266.00;;;26.89;79.54
22743;BME280;11538;48.884;8.696;2023-07-29T11:40:24;98264.78;;;27.14;79.38
22743;BME280;11538;48.884;8.696;2023-07-29T11:42:52;98265.53;;;27.14;75.65
22743;BME280;11538;48.884;8.696;2023-07-29T11:45:20;98267.16;;;26.64;75.87
22743;BME280;11538;48.884;8.696;2023-07-29T11:47:51;98266.72;;;26.42;77.35
22743;BME280;11538;48.884;8.696;2023-07-29T11:50:18;98262.91;;;26.83;77.17
22743;BME280;11538;48.884;8.696;2023-07-29T11:52:46;98263.13;;;27.17;74.35
22743;BME280;11538;48.884;8.696;2023-07-29T11:55:14;98255.63;;;27.13;73.84
22743;BME280;11538;48.884;8.696;2023-07-29T11:57:43;98265.91;;;26.93;76.31
22743;BME280;11538;48.884;8.696;2023-07-29T12:00:11;98265.97;;;27.13;73.35
22743;BME280;11538;48.884;8.696;2023-07-29T12:02:41;98251.03;;;26.79;73.75
22743;BME280;11538;48.884;8.696;2023-07-29T12:05:12;98258.47;;;26.62;72.50
22743;BME280;11538;48.884;8.696;2023-07-29T12:07:40;98267.22;;;26.61;71.55
22743;BME280;11538;48.884;8.696;2023-07-29T12:10:09;98257.84;;;26.51;73.43
22743;BME280;11538;48.884;8.696;2023-07-29T12:12:46;98270.53;;;26.52;70.58
22743;BME280;11538;48.884;8.696;2023-07-29T12:15:13;98270.00;;;26.88;68.53
22743;BME280;11538;48.884;8.696;2023-07-29T12:17:41;98273.13;;;26.90;67.50
22743;BME280;11538;48.884;8.696;2023-07-29T12:20:11;98277.88;;;27.37;65.87
22743;BME280;11538;48.884;8.696;2023-07-29T12:22:38;98281.94;;;27.77;63.70
22743;BME280;11538;48.884;8.696;2023-07-29T12:25:05;98259.97;;;27.99;62.67
22743;BME280;11538;48.884;8.696;2023-07-29T12:27:33;98271.91;;;27.99;62.56
22743;BME280;11538;48.884;8.696;2023-07-29T12:30:01;98255.94;;;27.19;63.52
22743;BME280;11538;48.884;8.696;2023-07-29T12:32:30;98259.06;;;26.74;64.58
22743;BME280;11538;48.884;8.696;2023-07-29T12:34:57;98261.97;;;26.39;67.11
22743;BME280;11538;48.884;8.696;2023-07-29T12:37:31;98268.91;;;26.27;67.12
22743;BME280;11538;48.884;8.696;2023-07-29T12:39:58;98268.53;;;25.94;68.20
22743;BME280;11538;48.884;8.696;2023-07-29T12:42:25;98263.22;;;26.07;68.60
22743;BME280;11538;48.884;8.696;2023-07-29T12:44:52;98261.56;;;26.09;68.45
22743;BME280;11538;48.884;8.696;2023-07-29T12:47:19;98258.94;;;25.98;69.10
22743;BME280;11538;48.884;8.696;2023-07-29T12:49:46;98250.00;;;26.15;69.13
22743;BME280;11538;48.884;8.696;2023-07-29T12:52:13;98256.44;;;26.90;66.67
22743;BME280;11538;48.884;8.696;2023-07-29T12:54:40;98260.13;;;27.51;62.63
22743;BME280;11538;48.884;8.696;2023-07-29T12:57:08;98250.50;;;27.56;62.71
22743;BME280;11538;48.884;8.696;2023-07-29T12:59:35;98249.91;;;27.44;62.81
22743;BME280;11538;48.884;8.696;2023-07-29T13:02:01;98253.44;;;27.25;63.28
22743;BME280;11538;48.884;8.696;2023-07-29T13:04:30;98248.97;;;27.07;63.85
22743;BME280;11538;48.884;8.696;2023-07-29T13:06:57;98254.03;;;26.92;63.85
22743;BME280;11538;48.884;8.696;2023-07-29T13:09:26;98246.28;;;27.04;62.50
22743;BME280;11538;48.884;8.696;2023-07-29T13:11:52;98253.03;;;27.03;62.84